Time;durP1;ratioP1;P1;durP2;ratioP2;P2;SDS_P1;SDS_P2;PMS_P1;PMS_P2;Temp;Humidity;BMP_temperature;BMP_pressure;BME280_temperature;BME280_humidity;BME280_pressure;Samples;Min_cycle;Max_cycle;Signal;HPM_P1;HPM_P2
2023/08/18 02:00:13;;;;;;;6.27;4.87;;;;;;;;;;5068493;27;20054;-77
2023/08/18 02:02:39;;;;;;;8.15;4.40;;;;;;;;;;4321997;33;20074;-77
2023/08/18 02:05:06;;;;;;;5.18;4.12;;;;;;;;;;4332984;33;20199;-77
2023/08/18 02:07:33;;;;;;;7.75;5.07;;;;;;;;;;4340366;33;20485;-77
2023/08/18 02:09:59;;;;;;;10.20;4.72;;;;;;;;;;4322038;33;20076;-78
2023/08/18 02:12:25;;;;;;;5.53;4.45;;;;;;;;;;4309289;33;20049;-77
2023/08/18 02:14:51;;;;;;;5.80;4.37;;;;;;;;;;4307831;33;20449;-78
2023/08/18 02:17:17;;;;;;;8.13;4.70;;;;;;;;;;4310117;33;20070;-78
2023/08/18 02:19:45;;;;;;;8.18;4.78;;;;;;;;;;4308796;33;20583;-80
2023/08/18 02:22:11;;;;;;;7.97;4.40;;;;;;;;;;4309387;33;20045;-79
2023/08/18 02:24:37;;;;;;;10.02;4.40;;;;;;;;;;4308967;33;20048;-78
2023/08/18 02:27:03;;;;;;;8.77;4.47;;;;;;;;;;4292820;33;20138;-79
2023/08/18 02:29:30;;;;;;;5.37;4.78;;;;;;;;;;4289371;33;20141;-78
2023/08/18 02:31:56;;;;;;;9.88;4.40;;;;;;;;;;4288459;33;20548;-78
2023/08/18 02:34:23;;;;;;;6.72;5.00;;;;;;;;;;4285912;33;20050;-77
2023/08/18 02:36:49;;;;;;;5.45;4.15;;;;;;;;;;4290787;33;20143;-78
2023/08/18 02:39:15;;;;;;;6.25;4.25;;;;;;;;;;4283556;33;20056;-78
2023/08/18 02:41:42;;;;;;;5.47;4.78;;;;;;;;;;4279353;33;20071;-78
2023/08/18 02:44:08;;;;;;;4.65;4.25;;;;;;;;;;4281488;33;20462;-78
2023/08/18 02:46:34;;;;;;;4.53;4.10;;;;;;;;;;4281924;33;20045;-78
2023/08/18 02:49:01;;;;;;;4.95;4.00;;;;;;;;;;4295687;33;20050;-77
2023/08/18 02:51:27;;;;;;;6.82;4.55;;;;;;;;;;4292976;33;20067;-78
2023/08/18 02:53:53;;;;;;;6.22;4.87;;;;;;;;;;4295387;33;20049;-79
2023/08/18 02:56:20;;;;;;;5.43;3.95;;;;;;;;;;4295749;33;20064;-78
2023/08/18 02:58:46;;;;;;;6.80;5.03;;;;;;;;;;4318909;33;20473;-78
2023/08/18 03:01:12;;;;;;;6.05;4.10;;;;;;;;;;4318896;33;20462;-77
2023/08/18 03:03:38;;;;;;;9.27;5.18;;;;;;;;;;4306991;33;20096;-78
2023/08/18 03:06:05;;;;;;;7.55;4.35;;;;;;;;;;4309550;33;20076;-78
2023/08/18 03:08:32;;;;;;;6.37;4.68;;;;;;;;;;4327884;33;20081;-76
2023/08/18 03:11:00;;;;;;;5.25;4.40;;;;;;;;;;4339200;33;20052;-77
2023/08/18 03:13:26;;;;;;;5.40;4.90;;;;;;;;;;4352258;33;20115;-79
2023/08/18 03:15:52;;;;;;;5.68;4.80;;;;;;;;;;4354731;33;20138;-78
2023/08/18 03:18:18;;;;;;;12.68;4.70;;;;;;;;;;4345377;33;20112;-76
2023/08/18 03:20:48;;;;;;;8.93;4.80;;;;;;;;;;4327062;33;20040;-77
2023/08/18 03:23:15;;;;;;;5.80;4.62;;;;;;;;;;4331497;33;20036;-76
2023/08/18 03:25:42;;;;;;;4.55;4.15;;;;;;;;;;4336034;33;20073;-77
2023/08/18 03:28:08;;;;;;;5.82;4.65;;;;;;;;;;4340696;33;20045;-77
2023/08/18 03:30:37;;;;;;;4.15;3.75;;;;;;;;;;4339814;32;20045;-77
2023/08/18 03:33:05;;;;;;;8.85;5.12;;;;;;;;;;4331967;33;20056;-77
2023/08/18 03:35:32;;;;;;;5.10;4.43;;;;;;;;;;4335648;33;20054;-77
2023/08/18 03:37:58;;;;;;;5.82;5.03;;;;;;;;;;4338404;33;20961;-78
2023/08/18 03:40:25;;;;;;;7.45;5.22;;;;;;;;;;4339503;33;20048;-76
2023/08/18 03:42:51;;;;;;;6.00;4.60;;;;;;;;;;4337776;33;20408;-76
2023/08/18 03:45:17;;;;;;;4.72;4.22;;;;;;;;;;4338321;33;20201;-77
2023/08/18 03:47:45;;;;;;;4.65;4.22;;;;;;;;;;4336155;33;20069;-77
2023/08/18 03:50:13;;;;;;;4.85;4.28;;;;;;;;;;4347226;32;20567;-77
2023/08/18 03:52:39;;;;;;;5.53;4.85;;;;;;;;;;4345076;32;20420;-77
2023/08/18 03:55:05;;;;;;;5.00;4.60;;;;;;;;;;4340680;33;20055;-77
2023/08/18 03:57:31;;;;;;;6.25;4.65;;;;;;;;;;4353187;32;20044;-76
2023/08/18 03:59:58;;;;;;;4.75;4.35;;;;;;;;;;4341734;33;20037;-77
2023/08/18 04:02:24;;;;;;;4.80;4.40;;;;;;;;;;4327546;33;20973;-78
2023/08/18 04:04:50;;;;;;;5.40;4.90;;;;;;;;;;4341355;33;20064;-77
2023/08/18 04:07:17;;;;;;;5.28;4.22;;;;;;;;;;4341042;33;20816;-76
2023/08/18 04:09:43;;;;;;;4.85;4.45;;;;;;;;;;4339768;33;20395;-77
2023/08/18 04:12:10;;;;;;;6.12;4.20;;;;;;;;;;4339947;33;20028;-76
2023/08/18 04:14:36;;;;;;;5.37;4.55;;;;;;;;;;4341067;33;20125;-77
2023/08/18 04:17:02;;;;;;;4.40;4.00;;;;;;;;;;4350931;33;20473;-77
2023/08/18 04:19:29;;;;;;;10.65;4.40;;;;;;;;;;4339521;33;20066;-76
2023/08/18 04:21:55;;;;;;;8.30;4.20;;;;;;;;;;4351016;33;20028;-77
2023/08/18 04:24:21;;;;;;;8.95;3.97;;;;;;;;;;4345508;33;20056;-77
2023/08/18 04:26:47;;;;;;;4.57;3.97;;;;;;;;;;4338429;33;20066;-76
2023/08/18 04:29:13;;;;;;;3.92;3.62;;;;;;;;;;4339122;33;20062;-77
2023/08/18 04:31:46;;;;;;;4.03;3.60;;;;;;;;;;4355537;32;20039;-79
2023/08/18 04:34:12;;;;;;;3.55;3.35;;;;;;;;;;4354903;32;20062;-77
2023/08/18 04:36:38;;;;;;;6.15;3.40;;;;;;;;;;4356168;32;20060;-78
2023/08/18 04:39:05;;;;;;;3.85;3.55;;;;;;;;;;4354205;32;20060;-78
2023/08/18 04:41:31;;;;;;;5.65;3.20;;;;;;;;;;4341209;32;20044;-78
2023/08/18 04:43:58;;;;;;;3.75;3.35;;;;;;;;;;4341674;32;20113;-78
2023/08/18 04:46:24;;;;;;;4.65;4.25;;;;;;;;;;4355541;32;20051;-78
2023/08/18 04:48:52;;;;;;;3.65;3.15;;;;;;;;;;4345372;32;20358;-77
2023/08/18 04:51:19;;;;;;;3.65;3.37;;;;;;;;;;4356004;32;20381;-78
2023/08/18 04:53:46;;;;;;;4.07;3.70;;;;;;;;;;4345678;32;20052;-77
2023/08/18 04:56:12;;;;;;;6.10;3.67;;;;;;;;;;4337824;33;20511;-77
2023/08/18 04:58:38;;;;;;;3.70;3.00;;;;;;;;;;4326504;33;20275;-77
2023/08/18 05:01:04;;;;;;;5.70;3.37;;;;;;;;;;4325751;33;20044;-78
2023/08/18 05:03:31;;;;;;;6.70;4.05;;;;;;;;;;4326048;33;20040;-77
2023/08/18 05:06:07;;;;;;;5.45;3.30;;;;;;;;;;4323308;33;20024;-78
2023/08/18 05:08:39;;;;;;;3.65;3.35;;;;;;;;;;4325521;33;20060;-78
2023/08/18 05:13:40;;;;;;;4.97;3.22;;;;;;;;;;4317762;33;20084;-77
2023/08/18 05:16:06;;;;;;;5.60;3.42;;;;;;;;;;4318043;33;20314;-77
2023/08/18 05:18:33;;;;;;;4.82;3.55;;;;;;;;;;4319014;33;20175;-77
2023/08/18 05:21:00;;;;;;;3.78;3.25;;;;;;;;;;4318200;33;20045;-74
2023/08/18 05:23:27;;;;;;;3.95;2.87;;;;;;;;;;4302457;33;20514;-74
2023/08/18 05:25:54;;;;;;;3.17;2.97;;;;;;;;;;4300266;33;20108;-74
2023/08/18 05:28:21;;;;;;;4.32;3.47;;;;;;;;;;4303364;33;20860;-74
2023/08/18 05:30:47;;;;;;;5.07;3.37;;;;;;;;;;4318764;33;20043;-74
2023/08/18 05:33:14;;;;;;;3.20;2.97;;;;;;;;;;4325704;33;20066;-75
2023/08/18 05:35:42;;;;;;;3.50;3.15;;;;;;;;;;4327755;33;20036;-76
2023/08/18 05:38:11;;;;;;;3.10;2.90;;;;;;;;;;4325575;33;20101;-75
2023/08/18 05:40:43;;;;;;;3.08;2.70;;;;;;;;;;4309005;33;20049;-76
2023/08/18 05:43:11;;;;;;;3.15;2.95;;;;;;;;;;4298341;33;20041;-74
2023/08/18 05:48:11;;;;;;;3.40;2.72;;;;;;;;;;4299688;33;20070;-75
2023/08/18 05:50:38;;;;;;;5.12;3.28;;;;;;;;;;4301156;33;20513;-76
2023/08/18 05:53:04;;;;;;;7.82;3.30;;;;;;;;;;4301513;33;20037;-76
2023/08/18 05:55:31;;;;;;;3.28;2.80;;;;;;;;;;4298519;33;20044;-78
2023/08/18 05:58:01;;;;;;;3.70;3.40;;;;;;;;;;4292384;33;20053;-81
2023/08/18 06:00:28;;;;;;;3.05;2.65;;;;;;;;;;4305215;33;20106;-77
2023/08/18 06:02:55;;;;;;;2.62;2.42;;;;;;;;;;4307711;33;20486;-77
2023/08/18 06:05:21;;;;;;;3.17;2.87;;;;;;;;;;4308146;33;20083;-78
2023/08/18 06:07:48;;;;;;;3.87;3.53;;;;;;;;;;4308333;33;20059;-76
2023/08/18 06:10:14;;;;;;;4.57;2.50;;;;;;;;;;4284043;33;20525;-76
2023/08/18 06:12:42;;;;;;;3.03;2.72;;;;;;;;;;4283894;33;20040;-76
2023/08/18 06:15:09;;;;;;;2.67;2.55;;;;;;;;;;4326010;33;20560;-76
2023/08/18 06:17:36;;;;;;;5.45;2.78;;;;;;;;;;4331691;33;20066;-77
2023/08/18 06:20:04;;;;;;;6.82;2.62;;;;;;;;;;4311257;33;20069;-77
2023/08/18 06:22:32;;;;;;;6.72;2.58;;;;;;;;;;4330713;33;20062;-77
2023/08/18 06:24:59;;;;;;;5.43;2.60;;;;;;;;;;4333512;33;20627;-76
2023/08/18 06:27:27;;;;;;;3.05;2.75;;;;;;;;;;4335357;33;20032;-77
2023/08/18 06:29:54;;;;;;;4.90;2.90;;;;;;;;;;4338558;33;20043;-78
2023/08/18 06:32:22;;;;;;;9.63;5.28;;;;;;;;;;4312071;33;20052;-77
2023/08/18 06:34:52;;;;;;;10.90;3.35;;;;;;;;;;4318901;33;20102;-77
2023/08/18 06:37:19;;;;;;;5.10;4.03;;;;;;;;;;4322383;33;20114;-76
2023/08/18 06:39:46;;;;;;;4.10;2.58;;;;;;;;;;4304139;33;20176;-80
2023/08/18 06:42:13;;;;;;;5.50;2.35;;;;;;;;;;4293227;33;20067;-77
2023/08/18 06:44:39;;;;;;;4.78;2.50;;;;;;;;;;4280354;33;20049;-78
2023/08/18 06:47:07;;;;;;;3.55;2.62;;;;;;;;;;4292997;33;20068;-77
2023/08/18 06:49:33;;;;;;;6.45;2.65;;;;;;;;;;4262536;33;20445;-77
2023/08/18 06:52:00;;;;;;;3.37;2.75;;;;;;;;;;4249060;33;20049;-79
2023/08/18 06:54:27;;;;;;;6.32;2.58;;;;;;;;;;4244979;33;20080;-87
2023/08/18 06:56:55;;;;;;;5.90;2.83;;;;;;;;;;4248162;33;20062;-77
2023/08/18 06:59:22;;;;;;;4.87;2.40;;;;;;;;;;4238321;33;20175;-77
2023/08/18 07:01:50;;;;;;;4.25;3.62;;;;;;;;;;4216125;33;20050;-80
2023/08/18 07:04:16;;;;;;;3.37;3.08;;;;;;;;;;4220111;33;20043;-77
2023/08/18 07:06:45;;;;;;;6.65;3.40;;;;;;;;;;4207231;34;20043;-78
2023/08/18 07:09:13;;;;;;;10.70;4.80;;;;;;;;;;4196960;34;20050;-79
2023/08/18 07:11:43;;;;;;;6.12;3.08;;;;;;;;;;4227657;33;20052;-78
2023/08/18 07:14:14;;;;;;;3.50;2.80;;;;;;;;;;4211590;33;20055;-78
2023/08/18 07:16:41;;;;;;;9.88;3.45;;;;;;;;;;4222121;33;20039;-77
2023/08/18 07:19:09;;;;;;;6.82;3.22;;;;;;;;;;4214840;34;20412;-79
2023/08/18 07:21:39;;;;;;;3.78;3.47;;;;;;;;;;4233240;33;20094;-78
2023/08/18 07:24:05;;;;;;;5.90;3.33;;;;;;;;;;4222779;33;20050;-79
2023/08/18 07:26:32;;;;;;;3.67;3.35;;;;;;;;;;4223340;33;20058;-78
2023/08/18 07:29:04;;;;;;;5.43;3.72;;;;;;;;;;4233364;33;20050;-79
2023/08/18 07:31:32;;;;;;;8.10;4.15;;;;;;;;;;4236216;33;20091;-79
2023/08/18 07:33:59;;;;;;;4.95;3.85;;;;;;;;;;4253876;33;20080;-80
2023/08/18 07:36:26;;;;;;;3.55;3.28;;;;;;;;;;4264738;33;20501;-79
2023/08/18 07:38:53;;;;;;;9.85;4.15;;;;;;;;;;4268888;33;20054;-80
2023/08/18 07:41:20;;;;;;;12.30;3.55;;;;;;;;;;4263888;33;20041;-79
2023/08/18 07:43:47;;;;;;;4.32;3.90;;;;;;;;;;4248260;33;20072;-79
2023/08/18 07:46:21;;;;;;;9.05;3.95;;;;;;;;;;4248365;33;20065;-88
2023/08/18 07:48:48;;;;;;;7.75;3.83;;;;;;;;;;4300340;33;20496;-85
2023/08/18 07:51:20;;;;;;;7.97;3.58;;;;;;;;;;4305358;33;20046;-86
2023/08/18 07:53:53;;;;;;;7.78;3.37;;;;;;;;;;4306421;33;20134;-84
2023/08/18 07:56:22;;;;;;;7.35;3.70;;;;;;;;;;4304736;33;20049;-85
2023/08/18 07:58:50;;;;;;;5.25;3.20;;;;;;;;;;4291669;33;20125;-82
2023/08/18 08:01:18;;;;;;;4.70;3.55;;;;;;;;;;4305456;33;20045;-90
2023/08/18 08:03:46;;;;;;;5.72;4.05;;;;;;;;;;4305369;33;20104;-84
2023/08/18 08:06:12;;;;;;;5.12;3.62;;;;;;;;;;4307471;33;20439;-89
2023/08/18 08:08:39;;;;;;;5.95;4.00;;;;;;;;;;4276174;33;20163;-85
2023/08/18 08:11:06;;;;;;;6.95;4.30;;;;;;;;;;4265781;33;20057;-89
2023/08/18 08:13:33;;;;;;;5.78;4.53;;;;;;;;;;4273378;33;20045;-84
2023/08/18 08:16:00;;;;;;;6.75;4.15;;;;;;;;;;4264055;33;20062;-84
2023/08/18 08:18:27;;;;;;;17.60;4.32;;;;;;;;;;4264114;33;20046;-87
2023/08/18 08:20:54;;;;;;;6.53;4.65;;;;;;;;;;4265786;33;20133;-85
2023/08/18 08:23:21;;;;;;;6.53;4.05;;;;;;;;;;4262326;33;20018;-82
2023/08/18 08:25:50;;;;;;;7.37;4.80;;;;;;;;;;4248921;33;20485;-85
2023/08/18 08:28:23;;;;;;;12.52;4.32;;;;;;;;;;4251091;33;20465;-82
2023/08/18 08:30:51;;;;;;;8.82;4.97;;;;;;;;;;4248204;33;20042;-85
2023/08/18 08:33:21;;;;;;;9.57;5.05;;;;;;;;;;4246143;33;20065;-85
2023/08/18 08:35:48;;;;;;;12.88;5.10;;;;;;;;;;4249122;33;20058;-86
2023/08/18 08:38:16;;;;;;;9.18;5.80;;;;;;;;;;4235838;33;20058;-83
2023/08/18 08:40:48;;;;;;;9.18;5.55;;;;;;;;;;4231607;33;20425;-84
2023/08/18 08:43:18;;;;;;;9.65;6.43;;;;;;;;;;4226967;33;20101;-84
2023/08/18 08:45:45;;;;;;;8.27;5.90;;;;;;;;;;4233127;33;20606;-85
2023/08/18 08:48:32;;;;;;;10.30;6.20;;;;;;;;;;4230251;33;20106;-87
2023/08/18 08:51:06;;;;;;;11.38;6.78;;;;;;;;;;4246395;33;20038;-90
2023/08/18 08:53:38;;;;;;;16.00;7.70;;;;;;;;;;4238070;33;20038;-85
2023/08/18 08:56:09;;;;;;;12.68;8.07;;;;;;;;;;4257907;33;20058;-86
2023/08/18 08:58:37;;;;;;;11.98;8.10;;;;;;;;;;4240471;33;20083;-88
2023/08/18 09:01:10;;;;;;;10.38;7.62;;;;;;;;;;4261408;33;20065;-88
2023/08/18 09:03:36;;;;;;;7.70;7.00;;;;;;;;;;4251986;33;20042;-82
2023/08/18 09:06:11;;;;;;;10.27;6.40;;;;;;;;;;4241249;33;20046;-81
2023/08/18 09:08:41;;;;;;;8.95;6.97;;;;;;;;;;4260644;33;20088;-86
2023/08/18 09:11:13;;;;;;;11.88;7.25;;;;;;;;;;4256781;33;20033;-84
2023/08/18 09:13:41;;;;;;;9.32;7.35;;;;;;;;;;4279391;33;20071;-90
2023/08/18 09:16:15;;;;;;;13.68;8.00;;;;;;;;;;4279303;33;20040;-84
2023/08/18 09:18:45;;;;;;;8.32;7.40;;;;;;;;;;4267164;33;20342;-84
2023/08/18 09:21:12;;;;;;;8.85;7.35;;;;;;;;;;4234226;33;20064;-82
2023/08/18 09:23:39;;;;;;;9.75;7.72;;;;;;;;;;4252289;33;20076;-85
2023/08/18 09:26:06;;;;;;;13.40;8.30;;;;;;;;;;4236645;33;20439;-83
2023/08/18 09:28:32;;;;;;;32.45;8.75;;;;;;;;;;4264843;33;20073;-83
2023/08/18 09:30:58;;;;;;;15.10;8.82;;;;;;;;;;4270468;33;20079;-87
2023/08/18 09:33:26;;;;;;;39.72;9.63;;;;;;;;;;4252033;33;20034;-82
2023/08/18 09:35:58;;;;;;;15.20;9.75;;;;;;;;;;4241042;33;20046;-87
2023/08/18 09:41:03;;;;;;;44.20;10.13;;;;;;;;;;4436822;32;20038;-88
2023/08/18 09:43:30;;;;;;;22.95;11.12;;;;;;;;;;4419386;32;20034;-86
2023/08/18 09:45:57;;;;;;;19.58;10.73;;;;;;;;;;4422139;32;20462;-88
2023/08/18 09:48:26;;;;;;;38.17;10.50;;;;;;;;;;4426366;32;20101;-89
2023/08/18 09:50:53;;;;;;;15.40;10.65;;;;;;;;;;4425366;32;20034;-91
2023/08/18 09:53:22;;;;;;;11.98;9.38;;;;;;;;;;4396437;32;20091;-89
2023/08/18 09:55:56;;;;;;;13.00;9.98;;;;;;;;;;4392728;32;20776;-89
2023/08/18 09:58:28;;;;;;;11.27;9.43;;;;;;;;;;4392315;32;20043;-91
2023/08/18 10:00:57;;;;;;;16.33;9.73;;;;;;;;;;4351756;32;20048;-93
2023/08/18 10:03:26;;;;;;;18.02;10.25;;;;;;;;;;4353293;32;20114;-86
2023/08/18 10:05:53;;;;;;;14.87;11.07;;;;;;;;;;4354367;32;20546;-91
2023/08/18 10:08:21;;;;;;;15.93;10.85;;;;;;;;;;4342972;33;20061;-93
2023/08/18 10:10:49;;;;;;;12.70;10.77;;;;;;;;;;4329031;32;20059;-89
2023/08/18 10:13:15;;;;;;;13.68;11.12;;;;;;;;;;4324877;33;20087;-84
2023/08/18 10:15:42;;;;;;;10.57;8.73;;;;;;;;;;4321240;33;20044;-92
2023/08/18 10:18:16;;;;;;;9.32;8.07;;;;;;;;;;4325445;33;20064;-89
2023/08/18 10:20:46;;;;;;;11.27;8.20;;;;;;;;;;4327959;33;20181;-91
2023/08/18 10:23:22;;;;;;;9.82;7.75;;;;;;;;;;4340173;32;20107;-84
2023/08/18 10:25:52;;;;;;;8.75;7.55;;;;;;;;;;4348425;32;20096;-86
2023/08/18 10:28:19;;;;;;;12.82;6.55;;;;;;;;;;4348170;33;20147;-85
2023/08/18 10:30:56;;;;;;;9.07;7.07;;;;;;;;;;4335253;33;20111;-82
2023/08/18 10:33:35;;;;;;;10.00;6.22;;;;;;;;;;4328636;33;20044;-81
2023/08/18 10:36:04;;;;;;;6.30;4.28;;;;;;;;;;4324596;33;20127;-81
2023/08/18 10:38:33;;;;;;;14.45;5.65;;;;;;;;;;4309355;33;20053;-86
2023/08/18 10:40:59;;;;;;;29.30;5.93;;;;;;;;;;4323815;33;20067;-85
2023/08/18 10:43:27;;;;;;;82.12;7.05;;;;;;;;;;4308129;33;20463;-85
2023/08/18 10:45:59;;;;;;;7.37;5.15;;;;;;;;;;4321590;33;20056;-89
2023/08/18 10:48:30;;;;;;;13.07;6.10;;;;;;;;;;4334086;33;20044;-86
2023/08/18 10:50:56;;;;;;;5.95;4.80;;;;;;;;;;4328422;33;20048;-88
2023/08/18 10:53:22;;;;;;;12.18;6.62;;;;;;;;;;4338720;32;20052;-88
2023/08/18 10:55:48;;;;;;;14.20;5.75;;;;;;;;;;4353337;32;20139;-95
2023/08/18 10:58:15;;;;;;;8.57;5.47;;;;;;;;;;4352478;32;20081;-84
2023/08/18 11:03:19;;;;;;;8.20;5.10;;;;;;;;;;4320259;33;20093;-88
2023/08/18 11:05:45;;;;;;;18.80;5.43;;;;;;;;;;4327119;33;20058;-90
2023/08/18 11:08:11;;;;;;;11.05;6.15;;;;;;;;;;4315975;33;20525;-90
2023/08/18 11:10:38;;;;;;;10.20;5.95;;;;;;;;;;4335903;33;20071;-86
2023/08/18 11:13:06;;;;;;;10.68;6.00;;;;;;;;;;4340067;33;20049;-88
2023/08/18 11:15:32;;;;;;;7.55;5.95;;;;;;;;;;4339357;33;20044;-89
2023/08/18 11:18:00;;;;;;;6.62;6.03;;;;;;;;;;4338258;33;20066;-86
2023/08/18 11:20:26;;;;;;;8.20;6.03;;;;;;;;;;4351088;33;20040;-86
2023/08/18 11:22:53;;;;;;;10.40;6.90;;;;;;;;;;4308326;33;20098;-85
2023/08/18 11:25:22;;;;;;;7.78;6.32;;;;;;;;;;4294140;33;20456;-86
2023/08/18 11:27:49;;;;;;;10.27;6.45;;;;;;;;;;4293350;33;20075;-84
2023/08/18 11:30:15;;;;;;;6.97;6.22;;;;;;;;;;4295428;33;20044;-88
2023/08/18 11:32:42;;;;;;;20.20;8.23;;;;;;;;;;4290800;33;20069;-86
2023/08/18 11:35:09;;;;;;;8.52;6.53;;;;;;;;;;4293025;33;20110;-84
2023/08/18 11:37:40;;;;;;;7.43;6.35;;;;;;;;;;4293693;33;20052;-84
2023/08/18 11:40:09;;;;;;;15.15;7.45;;;;;;;;;;4276382;33;20097;-86
2023/08/18 11:42:37;;;;;;;11.60;6.53;;;;;;;;;;4275678;33;20116;-85
2023/08/18 11:45:06;;;;;;;9.10;7.15;;;;;;;;;;4276980;33;20033;-89
2023/08/18 11:47:33;;;;;;;8.75;6.35;;;;;;;;;;4278619;33;20073;-89
2023/08/18 11:50:01;;;;;;;7.62;6.07;;;;;;;;;;4280734;33;20039;-84
2023/08/18 11:52:37;;;;;;;10.32;7.03;;;;;;;;;;4281851;33;20394;-87
2023/08/18 11:55:04;;;;;;;11.07;7.22;;;;;;;;;;4280500;33;20030;-89
2023/08/18 11:57:30;;;;;;;13.38;7.25;;;;;;;;;;4322898;33;20045;-90
2023/08/18 11:59:56;;;;;;;13.07;8.10;;;;;;;;;;4318094;33;20086;-85
2023/08/18 12:02:23;;;;;;;12.13;6.75;;;;;;;;;;4320130;33;20383;-89
2023/08/18 12:04:51;;;;;;;8.18;6.22;;;;;;;;;;4325438;33;20057;-87
2023/08/18 12:07:24;;;;;;;8.02;6.90;;;;;;;;;;4323124;33;20044;-83
2023/08/18 12:09:50;;;;;;;8.65;6.68;;;;;;;;;;4324059;33;20063;-83
2023/08/18 12:12:16;;;;;;;6.95;6.22;;;;;;;;;;4319965;33;20086;-83
2023/08/18 12:14:43;;;;;;;8.32;6.07;;;;;;;;;;4323939;33;20061;-84
2023/08/18 12:17:09;;;;;;;15.88;7.40;;;;;;;;;;4327860;33;20460;-83
2023/08/18 12:19:35;;;;;;;8.80;7.22;;;;;;;;;;4350426;32;20048;-82
2023/08/18 12:22:01;;;;;;;12.52;7.97;;;;;;;;;;4350751;32;20043;-83
2023/08/18 12:24:28;;;;;;;58.65;8.77;;;;;;;;;;4323422;33;20485;-83
2023/08/18 12:26:54;;;;;;;56.08;8.05;;;;;;;;;;4324257;33;20054;-82
2023/08/18 12:29:20;;;;;;;27.17;9.18;;;;;;;;;;4321801;33;20065;-82
2023/08/18 12:31:47;;;;;;;10.40;7.90;;;;;;;;;;4323652;33;20869;-83
2023/08/18 12:34:13;;;;;;;13.52;7.35;;;;;;;;;;4320624;33;20053;-84
2023/08/18 12:36:39;;;;;;;16.60;9.57;;;;;;;;;;4319662;33;20048;-88
2023/08/18 12:39:08;;;;;;;12.75;8.43;;;;;;;;;;4323113;33;20052;-86
2023/08/18 12:41:34;;;;;;;21.17;9.57;;;;;;;;;;4325088;33;20036;-89
2023/08/18 12:44:00;;;;;;;12.82;9.40;;;;;;;;;;4327514;33;20057;-88
2023/08/18 12:46:26;;;;;;;8.63;7.72;;;;;;;;;;4327473;33;20474;-86
2023/08/18 12:48:53;;;;;;;16.05;8.15;;;;;;;;;;4331126;33;20060;-87
2023/08/18 12:51:21;;;;;;;11.27;8.90;;;;;;;;;;4324763;33;20489;-85
2023/08/18 12:53:48;;;;;;;12.57;9.52;;;;;;;;;;4329160;33;20045;-84
2023/08/18 12:56:15;;;;;;;9.82;8.60;;;;;;;;;;4305201;33;20104;-86
2023/08/18 12:58:47;;;;;;;14.77;8.63;;;;;;;;;;4313861;33;20103;-84
2023/08/18 13:01:13;;;;;;;12.45;8.48;;;;;;;;;;4308685;33;20066;-84
2023/08/18 13:03:40;;;;;;;9.93;8.27;;;;;;;;;;4310165;33;20163;-84
2023/08/18 13:06:06;;;;;;;13.18;8.65;;;;;;;;;;4308551;33;20096;-83
2023/08/18 13:08:32;;;;;;;11.25;8.45;;;;;;;;;;4315480;33;20040;-84
2023/08/18 13:10:59;;;;;;;12.70;8.88;;;;;;;;;;4305580;33;20029;-84
2023/08/18 13:13:25;;;;;;;9.93;8.27;;;;;;;;;;4310163;33;20064;-84
2023/08/18 13:15:51;;;;;;;9.45;7.72;;;;;;;;;;4314703;33;20041;-83
2023/08/18 13:18:19;;;;;;;10.80;8.00;;;;;;;;;;4309891;33;20155;-82
2023/08/18 13:20:45;;;;;;;7.20;6.28;;;;;;;;;;4313075;33;20071;-82
2023/08/18 13:23:13;;;;;;;7.85;6.60;;;;;;;;;;4312550;33;20098;-83
2023/08/18 13:25:39;;;;;;;12.77;8.48;;;;;;;;;;4300646;33;20065;-84
2023/08/18 13:28:06;;;;;;;8.23;7.40;;;;;;;;;;4270752;33;20067;-83
2023/08/18 13:30:32;;;;;;;9.10;7.30;;;;;;;;;;4270437;33;20479;-82
2023/08/18 13:32:58;;;;;;;9.85;7.05;;;;;;;;;;4273475;33;20400;-82
2023/08/18 13:35:24;;;;;;;10.25;7.65;;;;;;;;;;4274936;33;20041;-84
2023/08/18 13:37:51;;;;;;;8.10;7.28;;;;;;;;;;4272057;33;20046;-83
2023/08/18 13:40:17;;;;;;;8.25;7.07;;;;;;;;;;4275219;33;20062;-84
2023/08/18 13:42:44;;;;;;;8.68;7.80;;;;;;;;;;4272115;33;20045;-83
2023/08/18 13:45:10;;;;;;;8.77;7.60;;;;;;;;;;4278254;33;20038;-83
2023/08/18 13:47:37;;;;;;;9.18;8.25;;;;;;;;;;4276173;33;20057;-82
2023/08/18 13:50:04;;;;;;;11.18;8.85;;;;;;;;;;4278142;33;20714;-85
2023/08/18 13:52:30;;;;;;;10.45;7.80;;;;;;;;;;4276576;33;20055;-85
2023/08/18 13:54:56;;;;;;;15.05;8.55;;;;;;;;;;4283306;33;20357;-86
2023/08/18 13:57:23;;;;;;;9.10;8.07;;;;;;;;;;4325408;33;20064;-84
2023/08/18 13:59:49;;;;;;;10.63;9.20;;;;;;;;;;4342977;33;20039;-80
2023/08/18 14:02:15;;;;;;;10.82;9.25;;;;;;;;;;4307623;33;20147;-81
2023/08/18 14:04:41;;;;;;;9.15;7.93;;;;;;;;;;4309288;33;20083;-84
2023/08/18 14:07:07;;;;;;;12.07;9.30;;;;;;;;;;4307658;33;20081;-84
2023/08/18 14:09:33;;;;;;;9.48;8.63;;;;;;;;;;4309196;33;20041;-84
2023/08/18 14:12:01;;;;;;;15.68;10.43;;;;;;;;;;4306529;33;20053;-82
2023/08/18 14:14:27;;;;;;;13.80;10.73;;;;;;;;;;4305496;33;20044;-83
2023/08/18 14:16:53;;;;;;;14.80;10.80;;;;;;;;;;4306244;33;20091;-84
2023/08/18 14:19:19;;;;;;;16.23;9.77;;;;;;;;;;4307917;33;20066;-86
2023/08/18 14:21:48;;;;;;;13.35;10.13;;;;;;;;;;4308066;33;20044;-86
2023/08/18 14:24:15;;;;;;;16.62;10.70;;;;;;;;;;4306015;33;20060;-83
2023/08/18 14:26:42;;;;;;;13.75;11.10;;;;;;;;;;4306641;33;20075;-84
2023/08/18 14:29:08;;;;;;;13.07;9.75;;;;;;;;;;4310131;33;20028;-84
2023/08/18 14:31:34;;;;;;;12.50;10.07;;;;;;;;;;4306348;33;20052;-83
2023/08/18 14:34:01;;;;;;;13.85;9.27;;;;;;;;;;4335107;32;20036;-84
2023/08/18 14:36:27;;;;;;;13.18;9.48;;;;;;;;;;4341738;32;20048;-85
2023/08/18 14:38:53;;;;;;;16.30;8.30;;;;;;;;;;4341078;32;20416;-85
2023/08/18 14:41:20;;;;;;;10.23;7.35;;;;;;;;;;4345596;32;20062;-84
2023/08/18 14:43:46;;;;;;;14.10;8.23;;;;;;;;;;4344994;32;20044;-85
2023/08/18 14:46:13;;;;;;;8.85;7.90;;;;;;;;;;4338853;32;20106;-87
2023/08/18 14:48:39;;;;;;;10.18;8.35;;;;;;;;;;4338369;32;20063;-82
2023/08/18 14:51:05;;;;;;;9.65;8.52;;;;;;;;;;4346145;32;20051;-85
2023/08/18 14:53:31;;;;;;;10.32;9.30;;;;;;;;;;4309248;33;20087;-82
2023/08/18 14:55:58;;;;;;;8.95;8.15;;;;;;;;;;4305836;33;20073;-84
2023/08/18 14:58:27;;;;;;;9.77;7.82;;;;;;;;;;4304908;33;20095;-88
2023/08/18 15:00:54;;;;;;;11.73;7.70;;;;;;;;;;4306157;33;20356;-86
2023/08/18 15:03:20;;;;;;;7.70;7.10;;;;;;;;;;4306591;33;20053;-85
2023/08/18 15:05:46;;;;;;;12.10;8.13;;;;;;;;;;4311437;33;20075;-85
2023/08/18 15:08:12;;;;;;;8.52;7.62;;;;;;;;;;4310484;33;20086;-88
2023/08/18 15:10:39;;;;;;;7.70;7.00;;;;;;;;;;4311128;33;20045;-85
2023/08/18 15:13:04;;;;;;;8.20;7.03;;;;;;;;;;4310813;33;20480;-85
2023/08/18 15:15:31;;;;;;;13.30;7.18;;;;;;;;;;4308420;33;20090;-86
2023/08/18 15:17:57;;;;;;;9.50;7.40;;;;;;;;;;4309603;33;20052;-86
2023/08/18 15:20:23;;;;;;;9.82;7.40;;;;;;;;;;4323147;33;20456;-83
2023/08/18 15:22:50;;;;;;;10.68;8.48;;;;;;;;;;4294935;33;20132;-85
2023/08/18 15:25:17;;;;;;;9.75;8.05;;;;;;;;;;4322916;33;20064;-82
2023/08/18 15:27:45;;;;;;;7.45;6.78;;;;;;;;;;4324106;33;20070;-90
2023/08/18 15:30:12;;;;;;;8.75;7.95;;;;;;;;;;4326137;33;20064;-90
2023/08/18 15:32:38;;;;;;;14.98;8.75;;;;;;;;;;4326338;33;20092;-93
2023/08/18 15:35:05;;;;;;;8.27;7.50;;;;;;;;;;4322518;33;20806;-88
2023/08/18 15:37:31;;;;;;;11.80;8.55;;;;;;;;;;4324336;33;20659;-83
2023/08/18 15:39:58;;;;;;;8.48;7.68;;;;;;;;;;4322622;33;20045;-93
2023/08/18 15:42:24;;;;;;;7.78;6.97;;;;;;;;;;4321640;33;20143;-88
2023/08/18 15:44:52;;;;;;;9.88;7.62;;;;;;;;;;4307191;33;20098;-85
2023/08/18 15:47:19;;;;;;;7.78;7.03;;;;;;;;;;4326490;33;20050;-89
2023/08/18 15:52:20;;;;;;;10.15;6.78;;;;;;;;;;4325127;33;20095;-85
2023/08/18 15:54:46;;;;;;;7.30;6.22;;;;;;;;;;4352610;33;20056;-89
2023/08/18 15:57:12;;;;;;;6.85;6.18;;;;;;;;;;4358660;32;20112;-87
2023/08/18 15:59:39;;;;;;;8.30;6.53;;;;;;;;;;4367769;32;20076;-83
2023/08/18 16:02:05;;;;;;;13.27;5.70;;;;;;;;;;4364553;32;20098;-89
2023/08/18 16:04:32;;;;;;;7.00;6.30;;;;;;;;;;4369216;32;20111;-89
2023/08/18 16:06:58;;;;;;;6.78;6.20;;;;;;;;;;4365713;32;20112;-89
2023/08/18 16:09:24;;;;;;;7.20;6.18;;;;;;;;;;4367621;32;20111;-91
2023/08/18 16:11:50;;;;;;;7.45;6.75;;;;;;;;;;4353783;32;20108;-89
2023/08/18 16:14:19;;;;;;;6.07;5.57;;;;;;;;;;4361589;32;20151;-93
2023/08/18 16:16:44;;;;;;;7.35;6.65;;;;;;;;;;4357551;32;20040;-94
2023/08/18 16:19:11;;;;;;;7.22;6.05;;;;;;;;;;4355542;32;20089;-83
2023/08/18 16:21:37;;;;;;;9.30;5.35;;;;;;;;;;4355863;32;20059;-84
2023/08/18 16:24:03;;;;;;;9.45;5.72;;;;;;;;;;4353630;32;20062;-83
2023/08/18 16:26:29;;;;;;;6.15;5.55;;;;;;;;;;4355186;32;20089;-84
2023/08/18 16:28:56;;;;;;;6.37;5.78;;;;;;;;;;4353615;32;20066;-89
2023/08/18 16:31:21;;;;;;;6.03;5.53;;;;;;;;;;4346986;32;20374;-85
2023/08/18 16:33:50;;;;;;;6.07;5.40;;;;;;;;;;4342514;32;20117;-84
2023/08/18 16:36:16;;;;;;;6.00;4.70;;;;;;;;;;4339325;33;20055;-83
2023/08/18 16:38:49;;;;;;;5.32;4.93;;;;;;;;;;4323078;33;20057;-87
2023/08/18 16:41:16;;;;;;;9.48;5.40;;;;;;;;;;4323801;33;20531;-84
2023/08/18 16:43:42;;;;;;;5.85;5.35;;;;;;;;;;4295509;33;20045;-83
2023/08/18 16:46:08;;;;;;;6.10;5.57;;;;;;;;;;4312179;33;20079;-83
2023/08/18 16:48:35;;;;;;;5.22;4.82;;;;;;;;;;4307123;33;20061;-84
2023/08/18 16:51:00;;;;;;;5.37;4.55;;;;;;;;;;4308069;33;20443;-84